createdAt,value
2023-05-22T00:00:00.948Z,94789.00
2023-05-22T00:01:00.935Z,94791.00
2023-05-22T00:02:00.973Z,94787.00
2023-05-22T00:03:01.042Z,94787.00
2023-05-22T00:04:00.927Z,94785.00
2023-05-22T00:05:00.981Z,94781.00
2023-05-22T00:06:00.944Z,94783.00
2023-05-22T00:07:00.912Z,94787.00
2023-05-22T00:08:00.960Z,94791.00
2023-05-22T00:09:00.934Z,94791.00
2023-05-22T00:10:00.899Z,94789.00
2023-05-22T00:11:00.922Z,94787.00
2023-05-22T00:12:00.923Z,94785.00
2023-05-22T00:13:00.929Z,94783.00
2023-05-22T00:14:00.921Z,94785.00
2023-05-22T00:15:00.899Z,94785.00
2023-05-22T00:16:00.934Z,94783.00
2023-05-22T00:17:00.941Z,94780.00
2023-05-22T00:18:01.088Z,94774.00
2023-05-22T00:19:01.024Z,94772.00
2023-05-22T00:20:00.940Z,94774.00
2023-05-22T00:21:00.907Z,94776.00
2023-05-22T00:22:00.896Z,94780.00
2023-05-22T00:23:00.924Z,94780.00
2023-05-22T00:24:00.931Z,94778.00
2023-05-22T00:25:00.894Z,94774.00
2023-05-22T00:26:00.920Z,94772.00
2023-05-22T00:27:00.921Z,94768.00
2023-05-22T00:28:00.945Z,94772.00
2023-05-22T00:29:00.908Z,94780.00
2023-05-22T00:30:00.930Z,94781.00
2023-05-22T00:31:00.929Z,94783.00
2023-05-22T00:32:00.926Z,94783.00
2023-05-22T00:33:00.901Z,94783.00
2023-05-22T00:34:00.961Z,94785.00
2023-05-22T00:35:00.929Z,94783.00
2023-05-22T00:36:00.928Z,94783.00
2023-05-22T00:37:00.885Z,94783.00
2023-05-22T00:38:00.914Z,94781.00
2023-05-22T00:39:00.913Z,94781.00
2023-05-22T00:40:00.891Z,94780.00
2023-05-22T00:41:00.885Z,94781.00
2023-05-22T00:42:00.895Z,94778.00
2023-05-22T00:43:00.872Z,94780.00
2023-05-22T00:44:00.882Z,94776.00
2023-05-22T00:45:00.881Z,94780.00
2023-05-22T00:46:00.881Z,94781.00
2023-05-22T00:47:00.870Z,94780.00
2023-05-22T00:48:00.875Z,94781.00
2023-05-22T00:49:00.885Z,94787.00
2023-05-22T00:50:00.888Z,94781.00
2023-05-22T00:51:00.857Z,94781.00
2023-05-22T00:52:00.875Z,94780.00
2023-05-22T00:53:00.914Z,94780.00
2023-05-22T00:54:00.917Z,94783.00
2023-05-22T00:55:00.881Z,94783.00
2023-05-22T00:56:00.905Z,94783.00
2023-05-22T00:57:00.892Z,94785.00
2023-05-22T00:58:00.877Z,94785.00
2023-05-22T00:59:00.900Z,94781.00
2023-05-22T01:00:00.901Z,94783.00
2023-05-22T01:01:00.904Z,94781.00
2023-05-22T01:02:00.914Z,94783.00
2023-05-22T01:03:00.993Z,94783.00
2023-05-22T01:04:01.064Z,94783.00
2023-05-22T01:05:00.892Z,94781.00
2023-05-22T01:06:00.962Z,94780.00
2023-05-22T01:07:00.899Z,94781.00
2023-05-22T01:08:00.910Z,94785.00
2023-05-22T01:09:00.908Z,94787.00
2023-05-22T01:10:00.924Z,94787.00
2023-05-22T01:11:00.893Z,94787.00
2023-05-22T01:12:00.924Z,94787.00
2023-05-22T01:13:00.936Z,94789.00
2023-05-22T01:14:00.912Z,94787.00
2023-05-22T01:15:00.921Z,94789.00
2023-05-22T01:16:00.961Z,94787.00
2023-05-22T01:17:00.947Z,94787.00
2023-05-22T01:18:00.965Z,94787.00
2023-05-22T01:19:01.014Z,94791.00
2023-05-22T01:20:00.924Z,94793.00
2023-05-22T01:21:01.457Z,94795.00
2023-05-22T01:22:00.917Z,94793.00
2023-05-22T01:23:00.978Z,94791.00
2023-05-22T01:24:00.909Z,94789.00
2023-05-22T01:25:00.921Z,94787.00
2023-05-22T01:26:00.945Z,94789.00
2023-05-22T01:27:00.930Z,94795.00
2023-05-22T01:28:00.958Z,94795.00
2023-05-22T01:29:00.936Z,94797.00
2023-05-22T01:30:00.964Z,94795.00
2023-05-22T01:31:00.948Z,94795.00
2023-05-22T01:32:00.977Z,94795.00
2023-05-22T01:33:01.130Z,94791.00
2023-05-22T01:34:01.043Z,94791.00
2023-05-22T01:35:01.003Z,94793.00
2023-05-22T01:36:01.028Z,94793.00
2023-05-22T01:37:00.992Z,94791.00
2023-05-22T01:38:01.063Z,94797.00
2023-05-22T01:39:00.988Z,94801.00
2023-05-22T01:40:01.001Z,94805.00
2023-05-22T01:41:01.011Z,94805.00
2023-05-22T01:42:01.025Z,94803.00
2023-05-22T01:43:01.018Z,94803.00
2023-05-22T01:44:01.035Z,94801.00
2023-05-22T01:45:01.074Z,94803.00
2023-05-22T01:46:01.085Z,94803.00
2023-05-22T01:47:01.032Z,94807.00
2023-05-22T01:48:01.151Z,94811.00
2023-05-22T01:49:01.111Z,94811.00
2023-05-22T01:50:01.063Z,94813.00
2023-05-22T01:51:01.085Z,94815.00
2023-05-22T01:52:01.088Z,94813.00
2023-05-22T01:53:01.130Z,94813.00
2023-05-22T01:54:01.145Z,94813.00
2023-05-22T01:55:01.152Z,94813.00
2023-05-22T01:56:01.120Z,94817.00
2023-05-22T01:57:01.116Z,94813.00
2023-05-22T01:58:01.164Z,94811.00
2023-05-22T01:59:01.147Z,94813.00
2023-05-22T02:00:01.252Z,94811.00
2023-05-22T02:01:01.335Z,94813.00
2023-05-22T02:02:01.181Z,94813.00
2023-05-22T02:03:01.596Z,94813.00
2023-05-22T02:04:01.156Z,94815.00
2023-05-22T02:05:01.170Z,94817.00
2023-05-22T02:06:01.176Z,94817.00
2023-05-22T02:07:01.252Z,94815.00
2023-05-22T02:08:01.241Z,94817.00
2023-05-22T02:09:01.250Z,94819.00
2023-05-22T02:10:01.334Z,94823.00
2023-05-22T02:11:01.227Z,94823.00
2023-05-22T02:12:01.261Z,94823.00
2023-05-22T02:13:01.257Z,94823.00
2023-05-22T02:14:01.246Z,94819.00
2023-05-22T02:15:01.247Z,94821.00
2023-05-22T02:16:01.363Z,94821.00
2023-05-22T02:17:01.283Z,94821.00
2023-05-22T02:18:01.317Z,94819.00
2023-05-22T02:19:01.312Z,94817.00
2023-05-22T02:20:01.309Z,94819.00
2023-05-22T02:21:01.309Z,94817.00
2023-05-22T02:22:01.346Z,94817.00
2023-05-22T02:23:01.315Z,94815.00
2023-05-22T02:24:01.304Z,94815.00
2023-05-22T02:25:01.309Z,94813.00
2023-05-22T02:26:01.345Z,94811.00
2023-05-22T02:27:01.344Z,94809.00
2023-05-22T02:28:01.402Z,94807.00
2023-05-22T02:29:01.371Z,94805.00
2023-05-22T02:30:01.406Z,94803.00
2023-05-22T02:31:01.402Z,94801.00
2023-05-22T02:32:01.403Z,94805.00
2023-05-22T02:33:01.424Z,94803.00
2023-05-22T02:34:01.375Z,94805.00
2023-05-22T02:35:01.393Z,94809.00
2023-05-22T02:36:01.353Z,94811.00
2023-05-22T02:37:01.400Z,94811.00
2023-05-22T02:38:01.402Z,94815.00
2023-05-22T02:39:01.381Z,94815.00
2023-05-22T02:40:01.442Z,94817.00
2023-05-22T02:41:01.391Z,94819.00
2023-05-22T02:42:01.446Z,94819.00
2023-05-22T02:43:01.396Z,94821.00
2023-05-22T02:44:01.415Z,94821.00
2023-05-22T02:45:01.445Z,94819.00
2023-05-22T02:46:01.507Z,94823.00
2023-05-22T02:47:01.499Z,94819.00
2023-05-22T02:48:01.537Z,94819.00
2023-05-22T02:49:01.445Z,94819.00
2023-05-22T02:50:01.485Z,94819.00
2023-05-22T02:51:01.526Z,94819.00
2023-05-22T02:52:01.509Z,94819.00
2023-05-22T02:53:01.511Z,94819.00
2023-05-22T02:54:01.533Z,94821.00
2023-05-22T02:55:01.543Z,94817.00
2023-05-22T02:56:01.626Z,94819.00
2023-05-22T02:57:01.597Z,94821.00
2023-05-22T02:58:01.559Z,94821.00
2023-05-22T02:59:01.589Z,94825.00
2023-05-22T03:00:01.646Z,94823.00
2023-05-22T03:01:01.623Z,94821.00
2023-05-22T03:02:01.646Z,94819.00
2023-05-22T03:03:01.774Z,94821.00
2023-05-22T03:04:01.688Z,94825.00
2023-05-22T03:05:01.651Z,94827.00
2023-05-22T03:06:01.696Z,94827.00
2023-05-22T03:07:01.679Z,94827.00
2023-05-22T03:08:01.673Z,94827.00
2023-05-22T03:09:01.680Z,94827.00
2023-05-22T03:10:01.700Z,94827.00
2023-05-22T03:11:01.694Z,94830.00
2023-05-22T03:12:01.715Z,94828.00
2023-05-22T03:13:01.726Z,94828.00
2023-05-22T03:14:01.720Z,94830.00
2023-05-22T03:15:01.768Z,94830.00
2023-05-22T03:16:01.811Z,94830.00
2023-05-22T03:17:01.770Z,94830.00
2023-05-22T03:18:01.855Z,94828.00
2023-05-22T03:19:01.817Z,94832.00
2023-05-22T03:20:01.832Z,94827.00
2023-05-22T03:21:01.826Z,94828.00
2023-05-22T03:22:01.863Z,94828.00
2023-05-22T03:23:01.871Z,94828.00
2023-05-22T03:24:01.880Z,94830.00
2023-05-22T03:25:01.892Z,94828.00
2023-05-22T03:26:01.895Z,94827.00
2023-05-22T03:27:01.898Z,94825.00
2023-05-22T03:28:01.917Z,94823.00
2023-05-22T03:29:01.964Z,94823.00
2023-05-22T03:30:01.940Z,94825.00
2023-05-22T03:31:01.973Z,94825.00
2023-05-22T03:32:01.934Z,94827.00
2023-05-22T03:33:01.988Z,94825.00
2023-05-22T03:34:02.094Z,94821.00
2023-05-22T03:35:02.017Z,94825.00
2023-05-22T03:36:01.994Z,94825.00
2023-05-22T03:37:02.006Z,94823.00
2023-05-22T03:38:02.034Z,94823.00
2023-05-22T03:39:02.038Z,94819.00
2023-05-22T03:40:02.057Z,94819.00
2023-05-22T03:41:02.057Z,94819.00
2023-05-22T03:42:02.074Z,94817.00
2023-05-22T03:43:02.096Z,94817.00
2023-05-22T03:44:02.122Z,94811.00
2023-05-22T03:45:02.129Z,94813.00
2023-05-22T03:46:02.284Z,94813.00
2023-05-22T03:47:02.137Z,94813.00
2023-05-22T03:48:02.281Z,94817.00
2023-05-22T03:49:02.168Z,94817.00
2023-05-22T03:50:02.232Z,94817.00
2023-05-22T03:51:02.229Z,94815.00
2023-05-22T03:52:02.227Z,94819.00
2023-05-22T03:53:02.244Z,94821.00
2023-05-22T03:54:02.246Z,94821.00
2023-05-22T03:55:02.253Z,94823.00
2023-05-22T03:56:02.259Z,94823.00
2023-05-22T03:57:02.268Z,94823.00
2023-05-22T03:58:02.319Z,94825.00
2023-05-22T03:59:02.279Z,94825.00
2023-05-22T04:00:02.284Z,94828.00
2023-05-22T04:01:02.330Z,94827.00
2023-05-22T04:02:02.359Z,94828.00
2023-05-22T04:03:02.379Z,94827.00
2023-05-22T04:04:02.371Z,94828.00
2023-05-22T04:05:02.409Z,94827.00
2023-05-22T04:06:02.396Z,94828.00
2023-05-22T04:07:02.396Z,94830.00
2023-05-22T04:08:02.404Z,94828.00
2023-05-22T04:09:02.450Z,94827.00
2023-05-22T04:10:02.477Z,94827.00
2023-05-22T04:11:02.480Z,94830.00
2023-05-22T04:12:02.466Z,94828.00
2023-05-22T04:13:02.510Z,94828.00
2023-05-22T04:14:02.522Z,94823.00
2023-05-22T04:15:02.544Z,94825.00
2023-05-22T04:16:02.611Z,94823.00
2023-05-22T04:17:02.596Z,94828.00
2023-05-22T04:18:02.685Z,94828.00
2023-05-22T04:19:02.617Z,94828.00
2023-05-22T04:20:02.608Z,94828.00
2023-05-22T04:21:02.640Z,94832.00
2023-05-22T04:22:02.651Z,94832.00
2023-05-22T04:23:02.644Z,94834.00
2023-05-22T04:24:02.684Z,94834.00
2023-05-22T04:25:02.687Z,94836.00
2023-05-22T04:26:02.709Z,94838.00
2023-05-22T04:27:02.708Z,94838.00
2023-05-22T04:28:02.718Z,94842.00
2023-05-22T04:29:02.768Z,94842.00
2023-05-22T04:30:02.787Z,94842.00
2023-05-22T04:31:02.811Z,94842.00
2023-05-22T04:32:02.823Z,94842.00
2023-05-22T04:33:02.837Z,94842.00
2023-05-22T04:34:02.836Z,94844.00
2023-05-22T04:35:02.845Z,94848.00
2023-05-22T04:36:02.928Z,94848.00
2023-05-22T04:37:02.869Z,94850.00
2023-05-22T04:38:02.910Z,94850.00
2023-05-22T04:39:02.932Z,94846.00
2023-05-22T04:40:02.967Z,94848.00
2023-05-22T04:41:02.964Z,94848.00
2023-05-22T04:42:02.941Z,94846.00
2023-05-22T04:43:02.952Z,94848.00
2023-05-22T04:44:02.969Z,94848.00
2023-05-22T04:45:03.030Z,94850.00
2023-05-22T04:46:03.024Z,94848.00
2023-05-22T04:47:04.730Z,94850.00
2023-05-22T04:48:03.227Z,94850.00
2023-05-22T04:49:03.045Z,94850.00
2023-05-22T04:50:03.019Z,94850.00
2023-05-22T04:51:03.001Z,94850.00
2023-05-22T04:52:02.984Z,94852.00
2023-05-22T04:53:03.011Z,94850.00
2023-05-22T04:54:03.106Z,94852.00
2023-05-22T04:55:04.601Z,94850.00
2023-05-22T04:56:02.995Z,94854.00
2023-05-22T04:57:02.972Z,94856.00
2023-05-22T04:58:03.022Z,94856.00
2023-05-22T04:59:02.948Z,94858.00
2023-05-22T05:00:02.955Z,94854.00
2023-05-22T05:01:02.945Z,94856.00
2023-05-22T05:02:02.926Z,94858.00
2023-05-22T05:03:03.032Z,94858.00
2023-05-22T05:04:03.100Z,94858.00
2023-05-22T05:05:02.885Z,94856.00
2023-05-22T05:06:02.898Z,94854.00
2023-05-22T05:07:02.911Z,94852.00
2023-05-22T05:08:02.864Z,94856.00
2023-05-22T05:09:02.874Z,94858.00
2023-05-22T05:10:02.960Z,94856.00
2023-05-22T05:11:02.886Z,94858.00
2023-05-22T05:12:02.849Z,94858.00
2023-05-22T05:13:02.852Z,94856.00
2023-05-22T05:14:02.860Z,94860.00
2023-05-22T05:15:02.862Z,94860.00
2023-05-22T05:16:02.869Z,94858.00
2023-05-22T05:17:02.930Z,94856.00
2023-05-22T05:18:02.817Z,94854.00
2023-05-22T05:19:02.818Z,94854.00
2023-05-22T05:20:02.810Z,94854.00
2023-05-22T05:21:02.854Z,94854.00
2023-05-22T05:22:02.816Z,94858.00
2023-05-22T05:23:02.785Z,94858.00
2023-05-22T05:24:02.772Z,94856.00
2023-05-22T05:25:02.785Z,94858.00
2023-05-22T05:26:02.750Z,94860.00
2023-05-22T05:27:02.783Z,94860.00
2023-05-22T05:28:02.724Z,94862.00
2023-05-22T05:29:02.722Z,94862.00
2023-05-22T05:30:02.778Z,94858.00
2023-05-22T05:31:02.725Z,94858.00
2023-05-22T05:32:02.760Z,94858.00
2023-05-22T05:33:02.724Z,94856.00
2023-05-22T05:34:02.705Z,94858.00
2023-05-22T05:35:02.687Z,94856.00
2023-05-22T05:36:02.698Z,94858.00
2023-05-22T05:37:02.665Z,94858.00
2023-05-22T05:38:02.663Z,94854.00
2023-05-22T05:39:02.689Z,94854.00
2023-05-22T05:40:02.815Z,94854.00
2023-05-22T05:41:02.677Z,94856.00
2023-05-22T05:42:02.619Z,94860.00
2023-05-22T05:43:02.642Z,94858.00
2023-05-22T05:44:02.627Z,94860.00
2023-05-22T05:45:02.614Z,94860.00
2023-05-22T05:46:02.669Z,94858.00
2023-05-22T05:47:02.586Z,94860.00
2023-05-22T05:48:03.103Z,94856.00
2023-05-22T05:49:02.584Z,94856.00
2023-05-22T05:50:02.600Z,94858.00
2023-05-22T05:51:02.578Z,94856.00
2023-05-22T05:52:02.540Z,94858.00
2023-05-22T05:53:02.575Z,94854.00
2023-05-22T05:54:02.586Z,94854.00
2023-05-22T05:55:02.557Z,94856.00
2023-05-22T05:56:02.526Z,94856.00
2023-05-22T05:57:02.529Z,94858.00
2023-05-22T05:58:02.504Z,94858.00
2023-05-22T05:59:02.515Z,94860.00
2023-05-22T06:00:02.529Z,94862.00
2023-05-22T06:01:02.476Z,94860.00
2023-05-22T06:02:02.513Z,94866.00
2023-05-22T06:03:02.544Z,94862.00
2023-05-22T06:04:02.502Z,94862.00
2023-05-22T06:05:02.559Z,94862.00
2023-05-22T06:06:02.540Z,94862.00
2023-05-22T06:07:02.449Z,94864.00
2023-05-22T06:08:02.440Z,94866.00
2023-05-22T06:09:02.456Z,94866.00
2023-05-22T06:10:02.487Z,94866.00
2023-05-22T06:11:02.443Z,94866.00
2023-05-22T06:12:02.437Z,94866.00
2023-05-22T06:13:02.399Z,94862.00
2023-05-22T06:14:02.416Z,94866.00
2023-05-22T06:15:02.420Z,94866.00
2023-05-22T06:16:05.853Z,94866.00
2023-05-22T06:17:02.408Z,94866.00
2023-05-22T06:18:02.420Z,94862.00
2023-05-22T06:19:02.406Z,94864.00
2023-05-22T06:20:02.351Z,94864.00
2023-05-22T06:21:02.361Z,94864.00
2023-05-22T06:22:02.337Z,94862.00
2023-05-22T06:23:02.386Z,94864.00
2023-05-22T06:24:02.363Z,94864.00
2023-05-22T06:25:02.361Z,94862.00
2023-05-22T06:26:02.337Z,94862.00
2023-05-22T06:27:02.329Z,94860.00
2023-05-22T06:28:02.360Z,94860.00
2023-05-22T06:29:02.309Z,94858.00
2023-05-22T06:30:04.358Z,94858.00
2023-05-22T06:31:02.365Z,94858.00
2023-05-22T06:32:02.527Z,94860.00
2023-05-22T06:33:02.490Z,94856.00
2023-05-22T06:34:02.542Z,94856.00
2023-05-22T06:35:02.431Z,94856.00
2023-05-22T06:36:02.404Z,94856.00
2023-05-22T06:37:02.429Z,94858.00
2023-05-22T06:38:02.436Z,94858.00
2023-05-22T06:39:02.486Z,94860.00
2023-05-22T06:40:02.476Z,94856.00
2023-05-22T06:41:02.489Z,94858.00
2023-05-22T06:42:02.549Z,94856.00
2023-05-22T06:43:02.563Z,94856.00
2023-05-22T06:44:02.491Z,94856.00
2023-05-22T06:45:02.544Z,94856.00
2023-05-22T06:46:02.566Z,94850.00
2023-05-22T06:47:02.515Z,94848.00
2023-05-22T06:48:02.578Z,94848.00
2023-05-22T06:49:02.565Z,94848.00
2023-05-22T06:50:02.542Z,94844.00
2023-05-22T06:51:02.608Z,94846.00
2023-05-22T06:52:05.080Z,94848.00
2023-05-22T06:53:02.558Z,94846.00
2023-05-22T06:54:02.554Z,94844.00
2023-05-22T06:55:02.556Z,94846.00
2023-05-22T06:56:02.556Z,94844.00
2023-05-22T06:57:02.576Z,94844.00
2023-05-22T06:58:02.595Z,94840.00
2023-05-22T06:59:03.420Z,94838.00
2023-05-22T07:00:02.517Z,94840.00
2023-05-22T07:01:02.547Z,94838.00
2023-05-22T07:02:02.526Z,94842.00
2023-05-22T07:03:02.557Z,94840.00
2023-05-22T07:04:02.512Z,94836.00
2023-05-22T07:05:02.472Z,94836.00
2023-05-22T07:06:02.504Z,94838.00
2023-05-22T07:07:02.494Z,94838.00
2023-05-22T07:08:02.593Z,94834.00
2023-05-22T07:09:02.457Z,94834.00
2023-05-22T07:10:02.452Z,94832.00
2023-05-22T07:11:02.452Z,94830.00
2023-05-22T07:12:02.421Z,94827.00
2023-05-22T07:13:02.440Z,94827.00
2023-05-22T07:14:02.407Z,94828.00
2023-05-22T07:15:02.392Z,94825.00
2023-05-22T07:16:02.478Z,94825.00
2023-05-22T07:17:02.384Z,94827.00
2023-05-22T07:18:02.414Z,94823.00
2023-05-22T07:19:02.412Z,94827.00
2023-05-22T07:20:02.367Z,94825.00
2023-05-22T07:21:02.372Z,94823.00
2023-05-22T07:22:02.374Z,94825.00
2023-05-22T07:23:02.380Z,94823.00
2023-05-22T07:24:02.345Z,94823.00
2023-05-22T07:25:02.328Z,94823.00
2023-05-22T07:26:02.322Z,94819.00
2023-05-22T07:27:02.327Z,94821.00
2023-05-22T07:28:02.309Z,94821.00
2023-05-22T07:29:02.400Z,94817.00
2023-05-22T07:30:02.484Z,94817.00
2023-05-22T07:31:02.489Z,94813.00
2023-05-22T07:32:02.604Z,94817.00
2023-05-22T07:33:02.681Z,94815.00
2023-05-22T07:34:02.680Z,94815.00
2023-05-22T07:35:02.757Z,94815.00
2023-05-22T07:36:02.784Z,94815.00
2023-05-22T07:37:02.888Z,94815.00
2023-05-22T07:38:02.966Z,94813.00
2023-05-22T07:39:03.002Z,94815.00
2023-05-22T07:40:03.026Z,94813.00
2023-05-22T07:41:03.103Z,94809.00
2023-05-22T07:42:03.162Z,94807.00
2023-05-22T07:43:03.188Z,94807.00
2023-05-22T07:44:03.318Z,94805.00
2023-05-22T07:45:03.286Z,94799.00
2023-05-22T07:46:03.593Z,94799.00
2023-05-22T07:47:03.395Z,94797.00
2023-05-22T07:48:03.645Z,94795.00
2023-05-22T07:49:03.527Z,94795.00
2023-05-22T07:50:03.605Z,94793.00
2023-05-22T07:51:03.714Z,94791.00
2023-05-22T07:52:03.744Z,94793.00
2023-05-22T07:53:03.813Z,94789.00
2023-05-22T07:54:03.861Z,94789.00
2023-05-22T07:55:03.906Z,94787.00
2023-05-22T07:56:03.978Z,94787.00
2023-05-22T07:57:04.101Z,94785.00
2023-05-22T07:58:04.118Z,94785.00
2023-05-22T07:59:04.173Z,94787.00
2023-05-22T08:00:04.275Z,94785.00
2023-05-22T08:01:04.573Z,94781.00
2023-05-22T08:02:04.532Z,94780.00
2023-05-22T08:03:04.541Z,94780.00
2023-05-22T08:04:04.686Z,94778.00
2023-05-22T08:05:04.656Z,94778.00
2023-05-22T08:06:04.633Z,94778.00
2023-05-22T08:07:04.704Z,94780.00
2023-05-22T08:08:04.803Z,94776.00
2023-05-22T08:09:04.845Z,94772.00
2023-05-22T08:10:04.890Z,94774.00
2023-05-22T08:11:05.069Z,94772.00
2023-05-22T08:12:05.000Z,94770.00
2023-05-22T08:13:05.013Z,94770.00
2023-05-22T08:14:04.995Z,94764.00
2023-05-22T08:15:05.007Z,94766.00
2023-05-22T08:16:04.976Z,94764.00
2023-05-22T08:17:04.985Z,94764.00
2023-05-22T08:18:05.010Z,94764.00
2023-05-22T08:19:05.037Z,94766.00
2023-05-22T08:20:05.046Z,94762.00
2023-05-22T08:21:04.939Z,94762.00
2023-05-22T08:22:04.911Z,94762.00
2023-05-22T08:23:04.935Z,94758.00
2023-05-22T08:24:04.942Z,94760.00
2023-05-22T08:25:04.923Z,94760.00
2023-05-22T08:26:04.888Z,94760.00
2023-05-22T08:27:04.909Z,94760.00
2023-05-22T08:28:04.908Z,94758.00
2023-05-22T08:29:04.891Z,94760.00
2023-05-22T08:30:04.887Z,94758.00
2023-05-22T08:31:04.941Z,94758.00
2023-05-22T08:32:04.978Z,94758.00
2023-05-22T08:33:04.894Z,94758.00
2023-05-22T08:34:05.038Z,94756.00
2023-05-22T08:35:04.831Z,94754.00
2023-05-22T08:36:04.819Z,94754.00
2023-05-22T08:37:04.836Z,94754.00
2023-05-22T08:38:04.862Z,94752.00
2023-05-22T08:39:04.785Z,94752.00
2023-05-22T08:40:04.838Z,94748.00
2023-05-22T08:41:04.785Z,94750.00
2023-05-22T08:42:04.773Z,94748.00
2023-05-22T08:43:04.794Z,94746.00
2023-05-22T08:44:04.767Z,94744.00
2023-05-22T08:45:04.777Z,94744.00
2023-05-22T08:46:04.757Z,94740.00
2023-05-22T08:47:04.771Z,94740.00
2023-05-22T08:48:04.785Z,94738.00
2023-05-22T08:49:04.730Z,94736.00
2023-05-22T08:50:04.732Z,94736.00
2023-05-22T08:51:05.647Z,94734.00
2023-05-22T08:52:04.796Z,94733.00
2023-05-22T08:53:04.867Z,94729.00
2023-05-22T08:54:04.878Z,94731.00
2023-05-22T08:55:04.899Z,94725.00
2023-05-22T08:56:04.975Z,94727.00
2023-05-22T08:57:04.997Z,94725.00
2023-05-22T08:58:05.046Z,94727.00
2023-05-22T08:59:05.077Z,94723.00
2023-05-22T09:00:05.148Z,94723.00
2023-05-22T09:01:05.283Z,94719.00
2023-05-22T09:02:06.860Z,94721.00
2023-05-22T09:03:05.436Z,94719.00
2023-05-22T09:04:05.426Z,94715.00
2023-05-22T09:05:06.393Z,94717.00
2023-05-22T09:06:05.372Z,94717.00
2023-05-22T09:07:05.371Z,94715.00
2023-05-22T09:08:15.980Z,94713.00
2023-05-22T09:09:06.380Z,94711.00
2023-05-22T09:10:05.441Z,94713.00
2023-05-22T09:11:05.379Z,94715.00
2023-05-22T09:12:05.332Z,94713.00
2023-05-22T09:13:05.391Z,94709.00
2023-05-22T09:14:05.316Z,94707.00
2023-05-22T09:15:05.318Z,94705.00
2023-05-22T09:16:05.299Z,94705.00
2023-05-22T09:17:05.392Z,94705.00
2023-05-22T09:18:05.364Z,94705.00
2023-05-22T09:19:05.347Z,94703.00
2023-05-22T09:20:05.296Z,94701.00
2023-05-22T09:21:09.053Z,94701.00
2023-05-22T09:22:06.333Z,94699.00
2023-05-22T09:23:05.309Z,94699.00
2023-05-22T09:24:05.289Z,94697.00
2023-05-22T09:25:05.277Z,94699.00
2023-05-22T09:26:05.255Z,94695.00
2023-05-22T09:27:05.319Z,94695.00
2023-05-22T09:28:05.289Z,94699.00
2023-05-22T09:29:05.257Z,94697.00
2023-05-22T09:30:05.233Z,94697.00
2023-05-22T09:31:05.368Z,94699.00
2023-05-22T09:32:05.244Z,94693.00
2023-05-22T09:33:05.279Z,94691.00
2023-05-22T09:34:05.245Z,94693.00
2023-05-22T09:35:05.257Z,94691.00
2023-05-22T09:36:05.203Z,94691.00
2023-05-22T09:37:05.225Z,94687.00
2023-05-22T09:38:05.271Z,94689.00
2023-05-22T09:39:05.201Z,94687.00
2023-05-22T09:40:05.164Z,94686.00
2023-05-22T09:41:06.125Z,94687.00
2023-05-22T09:42:05.179Z,94684.00
2023-05-22T09:43:05.153Z,94686.00
2023-05-22T09:44:05.166Z,94684.00
2023-05-22T09:45:05.134Z,94684.00
2023-05-22T09:46:05.198Z,94680.00
2023-05-22T09:47:05.117Z,94680.00
2023-05-22T09:48:05.219Z,94680.00
2023-05-22T09:49:05.132Z,94682.00
2023-05-22T09:50:05.133Z,94680.00
2023-05-22T09:51:05.122Z,94680.00
2023-05-22T09:52:05.132Z,94678.00
2023-05-22T09:53:05.187Z,94678.00
2023-05-22T09:54:05.173Z,94676.00
2023-05-22T09:55:05.151Z,94678.00
2023-05-22T09:56:05.070Z,94672.00
2023-05-22T09:57:05.066Z,94672.00
2023-05-22T09:58:05.064Z,94674.00
2023-05-22T09:59:05.064Z,94674.00
2023-05-22T10:00:06.041Z,94674.00
2023-05-22T10:01:05.040Z,94668.00
2023-05-22T10:02:05.081Z,94666.00
2023-05-22T10:03:05.074Z,94668.00
2023-05-22T10:04:05.116Z,94668.00
2023-05-22T10:05:05.033Z,94666.00
2023-05-22T10:06:05.028Z,94664.00
2023-05-22T10:07:05.017Z,94666.00
2023-05-22T10:08:04.981Z,94656.00
2023-05-22T10:09:05.021Z,94654.00
2023-05-22T10:10:04.970Z,94654.00
2023-05-22T10:11:05.024Z,94652.00
2023-05-22T10:12:04.987Z,94650.00
2023-05-22T10:13:04.965Z,94650.00
2023-05-22T10:14:04.980Z,94650.00
2023-05-22T10:15:04.939Z,94646.00
2023-05-22T10:16:05.072Z,94644.00
2023-05-22T10:17:04.986Z,94642.00
2023-05-22T10:18:04.998Z,94641.00
2023-05-22T10:19:04.992Z,94641.00
2023-05-22T10:20:04.945Z,94639.00
2023-05-22T10:21:04.936Z,94639.00
2023-05-22T10:22:04.927Z,94637.00
2023-05-22T10:23:04.911Z,94637.00
2023-05-22T10:24:04.894Z,94633.00
2023-05-22T10:25:04.910Z,94633.00
2023-05-22T10:26:05.057Z,94631.00
2023-05-22T10:27:04.961Z,94633.00
2023-05-22T10:28:04.988Z,94631.00
2023-05-22T10:29:05.015Z,94629.00
2023-05-22T10:30:05.045Z,94633.00
2023-05-22T10:31:05.090Z,94631.00
2023-05-22T10:32:05.106Z,94633.00
2023-05-22T10:33:05.240Z,94633.00
2023-05-22T10:34:05.255Z,94631.00
2023-05-22T10:35:05.182Z,94629.00
2023-05-22T10:36:05.249Z,94629.00
2023-05-22T10:37:15.987Z,94627.00
2023-05-22T10:38:06.268Z,94625.00
2023-05-22T10:39:05.342Z,94625.00
2023-05-22T10:40:05.289Z,94619.00
2023-05-22T10:41:05.228Z,94617.00
2023-05-22T10:42:05.338Z,94619.00
2023-05-22T10:43:05.269Z,94617.00
2023-05-22T10:44:05.210Z,94617.00
2023-05-22T10:45:05.211Z,94617.00
2023-05-22T10:46:05.255Z,94611.00
2023-05-22T10:47:05.210Z,94611.00
2023-05-22T10:48:05.233Z,94609.00
2023-05-22T10:49:05.202Z,94607.00
2023-05-22T10:50:05.192Z,94607.00
2023-05-22T10:51:05.198Z,94603.00
2023-05-22T10:52:05.171Z,94603.00
2023-05-22T10:53:05.646Z,94603.00
2023-05-22T10:54:05.284Z,94601.00
2023-05-22T10:55:05.289Z,94601.00
2023-05-22T10:56:05.341Z,94601.00
2023-05-22T10:57:05.392Z,94595.00
2023-05-22T10:58:05.402Z,94597.00
2023-05-22T10:59:05.467Z,94597.00
2023-05-22T11:00:05.504Z,94595.00
2023-05-22T11:01:05.535Z,94594.00
2023-05-22T11:02:05.686Z,94594.00
2023-05-22T11:03:17.369Z,94592.00
2023-05-22T11:04:06.642Z,94592.00
2023-05-22T11:05:05.623Z,94588.00
2023-05-22T11:06:05.599Z,94590.00
2023-05-22T11:07:05.664Z,94588.00
2023-05-22T11:08:05.603Z,94588.00
2023-05-22T11:09:05.593Z,94586.00
2023-05-22T11:10:05.590Z,94586.00
2023-05-22T11:11:05.582Z,94586.00
2023-05-22T11:12:05.561Z,94582.00
2023-05-22T11:13:05.558Z,94584.00
2023-05-22T11:14:05.532Z,94582.00
2023-05-22T11:15:05.566Z,94582.00
2023-05-22T11:16:05.623Z,94580.00
2023-05-22T11:17:05.704Z,94578.00
2023-05-22T11:18:05.762Z,94576.00
2023-05-22T11:19:21.094Z,94576.00
2023-05-22T11:20:06.954Z,94574.00
2023-05-22T11:21:05.733Z,94574.00
2023-05-22T11:22:05.724Z,94570.00
2023-05-22T11:23:05.761Z,94568.00
2023-05-22T11:24:05.700Z,94566.00
2023-05-22T11:25:05.713Z,94566.00
2023-05-22T11:26:05.728Z,94568.00
2023-05-22T11:27:05.716Z,94566.00
2023-05-22T11:28:05.702Z,94566.00
2023-05-22T11:29:05.736Z,94566.00
2023-05-22T11:30:05.764Z,94566.00
2023-05-22T11:31:05.781Z,94566.00
2023-05-22T11:32:05.801Z,94566.00
2023-05-22T11:33:05.897Z,94564.00
2023-05-22T11:34:05.846Z,94564.00
2023-05-22T11:35:05.923Z,94564.00
2023-05-22T11:36:05.924Z,94562.00
2023-05-22T11:37:06.012Z,94562.00
2023-05-22T11:38:06.052Z,94560.00
2023-05-22T11:39:06.092Z,94558.00
2023-05-22T11:40:06.122Z,94556.00
2023-05-22T11:41:06.247Z,94558.00
2023-05-22T11:42:06.228Z,94556.00
2023-05-22T11:43:06.723Z,94552.00
2023-05-22T11:44:06.291Z,94552.00